Date,TemperatureHighF,TemperatureAvgF,TemperatureLowF,DewpointHighF,DewpointAvgF,DewpointLowF,HumidityHigh,HumidityAvg,HumidityLow,PressureMaxIn,PressureMinIn,WindSpeedMaxMPH,WindSpeedAvgMPH,GustSpeedMaxMPH,PrecipitationSumIn
2013-5-1,84.0,70.5,50.1,57.7,51.9,39.6,77,54,28,30.18,29.90,13,5,26,0.00
2013-5-2,59.0,46.3,39.2,45.7,39.3,33.8,95,77,56,30.23,30.15,11,3,18,1.17
2013-5-3,48.3,42.4,37.6,45.6,40.5,36.2,96,93,81,30.17,29.99,10,3,16,0.27
2013-5-4,68.9,55.2,44.6,48.0,44.1,40.3,87,68,44,30.04,29.97,10,1,12,0.00
2013-5-5,70.4,56.3,42.6,45.9,41.0,37.2,88,60,35,30.06,30.00,7,1,15,0.00
2013-5-6,74.9,58.5,43.3,42.7,37.2,29.7,79,50,20,30.06,29.98,4,0,10,0.00
2013-5-7,76.1,60.5,43.3,45.0,40.3,35.5,88,52,27,30.05,29.99,6,1,15,0.00
2013-5-8,80.9,62.0,42.9,49.1,41.5,36.0,94,54,21,30.03,29.95,7,0,12,0.00
2013-5-9,71.6,55.9,42.2,58.8,47.4,40.8,95,75,47,29.95,29.89,10,2,18,0.19
2013-5-10,47.0,43.1,40.2,42.5,40.8,37.2,97,92,82,29.96,29.82,15,4,21,0.86
2013-5-11,53.1,45.3,37.6,49.6,35.8,23.7,98,72,36,29.99,29.75,16,4,32,0.02
2013-5-12,53.5,43.4,35.2,31.6,26.6,21.9,76,53,31,30.09,29.99,13,4,19,0.00
2013-5-13,60.1,44.8,29.0,35.8,29.7,24.1,95,60,26,30.15,29.95,11,1,14,0.00
2013-5-14,84.5,65.6,47.6,55.8,45.7,30.2,59,50,29,29.94,29.50,16,4,47,0.00
2013-5-15,78.3,70.7,53.9,58.3,46.4,38.9,71,44,26,29.83,29.56,11,2,17,0.00
2013-5-16,77.2,62.0,51.0,51.0,41.4,28.2,78,50,30,29.98,29.83,7,1,14,0.00
2013-5-17,59.6,53.4,47.4,49.7,42.6,33.1,93,68,43,30.11,29.98,9,2,13,0.50
2013-5-18,76.5,62.1,49.8,60.9,51.2,43.8,84,69,48,30.07,29.95,6,1,12,0.00
2013-5-19,82.8,68.6,52.5,63.8,58.6,49.6,94,73,52,29.96,29.71,11,2,24,0.01
2013-5-20,84.9,75.9,67.1,65.7,59.3,54.1,87,59,35,29.75,29.67,15,5,27,0.02
2013-5-21,79.2,69.9,60.5,62.9,59.0,54.9,92,71,47,29.70,29.62,16,5,28,0.11
2013-5-22,65.6,59.0,52.3,63.8,56.7,51.4,97,93,81,29.75,29.62,10,0,15,0.73
2013-5-23,54.2,47.9,38.8,52.0,43.1,33.4,98,85,65,30.29,29.76,16,3,21,0.11
2013-5-24,59.9,45.9,34.0,41.1,33.8,29.5,91,65,41,30.41,30.29,6,1,12,0.00
2013-5-25,60.9,50.1,39.8,39.6,34.6,28.4,85,58,31,30.38,30.28,7,1,10,0.00
2013-5-26,65.2,51.6,35.5,42.7,38.5,33.4,94,64,38,30.29,30.17,9,1,15,0.00
2013-5-27,54.7,51.0,49.4,50.3,46.4,38.7,96,85,60,30.16,29.90,11,3,16,0.02
2013-5-28,71.5,59.5,49.4,67.1,57.9,48.3,98,95,80,29.89,29.70,13,1,16,0.87
2013-5-29,82.8,69.5,57.0,67.7,61.7,56.0,99,79,52,29.90,29.76,13,2,17,0.00
2013-5-30,84.7,75.1,65.2,69.1,65.3,61.8,92,73,54,29.89,29.75,22,6,27,0.36
2013-5-31,76.1,68.9,62.4,66.0,62.3,59.5,96,81,59,29.85,29.70,16,5,26,0.16